sensor_id;sensor_type;location;lat;lon;timestamp;P1;durP1;ratioP1;P2;durP2;ratioP2
20776;SDS011;10548;47.504;8.248;2023-04-24T00:02:02;1.40;;;1.00;;
20776;SDS011;10548;47.504;8.248;2023-04-24T00:04:30;3.30;;;0.90;;
20776;SDS011;10548;47.504;8.248;2023-04-24T00:06:58;2.13;;;1.00;;
20776;SDS011;10548;47.504;8.248;2023-04-24T00:09:26;3.23;;;1.10;;
20776;SDS011;10548;47.504;8.248;2023-04-24T00:11:54;2.37;;;1.00;;
20776;SDS011;10548;47.504;8.248;2023-04-24T00:14:21;3.50;;;0.80;;
20776;SDS011;10548;47.504;8.248;2023-04-24T00:16:48;1.20;;;0.67;;
20776;SDS011;10548;47.504;8.248;2023-04-24T00:19:15;0.80;;;0.80;;
20776;SDS011;10548;47.504;8.248;2023-04-24T00:21:43;1.07;;;0.73;;
20776;SDS011;10548;47.504;8.248;2023-04-24T00:24:10;1.37;;;0.80;;
20776;SDS011;10548;47.504;8.248;2023-04-24T00:26:37;0.90;;;0.80;;
20776;SDS011;10548;47.504;8.248;2023-04-24T00:29:04;1.53;;;0.80;;
20776;SDS011;10548;47.504;8.248;2023-04-24T00:31:31;1.77;;;0.80;;
20776;SDS011;10548;47.504;8.248;2023-04-24T00:34:01;0.77;;;0.73;;
20776;SDS011;10548;47.504;8.248;2023-04-24T00:36:29;0.87;;;0.63;;
20776;SDS011;10548;47.504;8.248;2023-04-24T00:38:57;2.60;;;0.67;;
20776;SDS011;10548;47.504;8.248;2023-04-24T00:41:24;1.20;;;0.70;;
20776;SDS011;10548;47.504;8.248;2023-04-24T00:43:52;5.00;;;0.70;;
20776;SDS011;10548;47.504;8.248;2023-04-24T00:46:20;1.20;;;0.53;;
20776;SDS011;10548;47.504;8.248;2023-04-24T00:48:48;1.10;;;0.63;;
20776;SDS011;10548;47.504;8.248;2023-04-24T00:51:16;1.27;;;0.63;;
20776;SDS011;10548;47.504;8.248;2023-04-24T00:53:43;0.80;;;0.47;;
20776;SDS011;10548;47.504;8.248;2023-04-24T00:56:10;1.07;;;0.60;;
20776;SDS011;10548;47.504;8.248;2023-04-24T00:58:38;0.97;;;0.60;;
20776;SDS011;10548;47.504;8.248;2023-04-24T01:01:06;0.70;;;0.60;;
20776;SDS011;10548;47.504;8.248;2023-04-24T01:03:33;0.60;;;0.60;;
20776;SDS011;10548;47.504;8.248;2023-04-24T01:06:04;1.43;;;0.60;;
20776;SDS011;10548;47.504;8.248;2023-04-24T01:08:32;0.53;;;0.50;;
20776;SDS011;10548;47.504;8.248;2023-04-24T01:11:03;1.37;;;0.60;;
20776;SDS011;10548;47.504;8.248;2023-04-24T01:13:31;0.40;;;0.40;;
20776;SDS011;10548;47.504;8.248;2023-04-24T01:15:59;2.63;;;0.70;;
20776;SDS011;10548;47.504;8.248;2023-04-24T01:18:27;0.43;;;0.40;;
20776;SDS011;10548;47.504;8.248;2023-04-24T01:20:58;1.10;;;0.70;;
20776;SDS011;10548;47.504;8.248;2023-04-24T01:23:26;0.50;;;0.50;;
20776;SDS011;10548;47.504;8.248;2023-04-24T01:25:53;1.13;;;0.60;;
20776;SDS011;10548;47.504;8.248;2023-04-24T01:28:21;0.60;;;0.50;;
20776;SDS011;10548;47.504;8.248;2023-04-24T01:30:48;1.87;;;0.50;;
20776;SDS011;10548;47.504;8.248;2023-04-24T01:33:16;0.97;;;0.60;;
20776;SDS011;10548;47.504;8.248;2023-04-24T01:35:43;0.97;;;0.60;;
20776;SDS011;10548;47.504;8.248;2023-04-24T01:38:11;0.93;;;0.60;;
20776;SDS011;10548;47.504;8.248;2023-04-24T01:40:39;1.07;;;0.60;;
20776;SDS011;10548;47.504;8.248;2023-04-24T01:43:06;0.87;;;0.60;;
20776;SDS011;10548;47.504;8.248;2023-04-24T01:45:33;0.50;;;0.50;;
20776;SDS011;10548;47.504;8.248;2023-04-24T01:48:03;1.80;;;0.50;;
20776;SDS011;10548;47.504;8.248;2023-04-24T01:50:30;0.93;;;0.50;;
20776;SDS011;10548;47.504;8.248;2023-04-24T01:52:58;0.97;;;0.60;;
20776;SDS011;10548;47.504;8.248;2023-04-24T01:55:25;0.90;;;0.40;;
20776;SDS011;10548;47.504;8.248;2023-04-24T01:57:52;2.67;;;0.60;;
20776;SDS011;10548;47.504;8.248;2023-04-24T02:00:22;1.27;;;0.50;;
20776;SDS011;10548;47.504;8.248;2023-04-24T02:02:52;0.40;;;0.40;;
20776;SDS011;10548;47.504;8.248;2023-04-24T02:05:19;0.40;;;0.40;;
20776;SDS011;10548;47.504;8.248;2023-04-24T02:07:46;0.57;;;0.50;;
20776;SDS011;10548;47.504;8.248;2023-04-24T02:10:13;0.60;;;0.40;;
20776;SDS011;10548;47.504;8.248;2023-04-24T02:12:41;1.20;;;0.53;;
20776;SDS011;10548;47.504;8.248;2023-04-24T02:15:08;0.70;;;0.47;;
20776;SDS011;10548;47.504;8.248;2023-04-24T02:17:36;3.00;;;0.40;;
20776;SDS011;10548;47.504;8.248;2023-04-24T02:20:05;0.47;;;0.40;;
20776;SDS011;10548;47.504;8.248;2023-04-24T02:22:33;0.80;;;0.43;;
20776;SDS011;10548;47.504;8.248;2023-04-24T02:25:00;3.60;;;0.40;;
20776;SDS011;10548;47.504;8.248;2023-04-24T02:27:28;0.50;;;0.50;;
20776;SDS011;10548;47.504;8.248;2023-04-24T02:29:55;2.20;;;0.50;;
20776;SDS011;10548;47.504;8.248;2023-04-24T02:32:23;0.90;;;0.37;;
20776;SDS011;10548;47.504;8.248;2023-04-24T02:34:50;0.30;;;0.30;;
20776;SDS011;10548;47.504;8.248;2023-04-24T02:37:17;0.47;;;0.47;;
20776;SDS011;10548;47.504;8.248;2023-04-24T02:39:44;0.73;;;0.40;;
20776;SDS011;10548;47.504;8.248;2023-04-24T02:42:11;1.60;;;0.47;;
20776;SDS011;10548;47.504;8.248;2023-04-24T02:44:38;1.67;;;0.60;;
20776;SDS011;10548;47.504;8.248;2023-04-24T02:47:05;1.17;;;0.30;;
20776;SDS011;10548;47.504;8.248;2023-04-24T02:49:32;0.67;;;0.43;;
20776;SDS011;10548;47.504;8.248;2023-04-24T02:51:59;0.37;;;0.30;;
20776;SDS011;10548;47.504;8.248;2023-04-24T02:54:27;1.27;;;0.40;;
20776;SDS011;10548;47.504;8.248;2023-04-24T02:56:54;1.57;;;0.50;;
20776;SDS011;10548;47.504;8.248;2023-04-24T02:59:21;0.63;;;0.40;;
20776;SDS011;10548;47.504;8.248;2023-04-24T03:01:48;0.67;;;0.50;;
20776;SDS011;10548;47.504;8.248;2023-04-24T03:04:15;1.63;;;0.50;;
20776;SDS011;10548;47.504;8.248;2023-04-24T03:06:43;0.40;;;0.40;;
20776;SDS011;10548;47.504;8.248;2023-04-24T03:09:10;1.27;;;0.60;;
20776;SDS011;10548;47.504;8.248;2023-04-24T03:11:37;0.57;;;0.50;;
20776;SDS011;10548;47.504;8.248;2023-04-24T03:14:07;0.40;;;0.40;;
20776;SDS011;10548;47.504;8.248;2023-04-24T03:16:36;0.40;;;0.40;;
20776;SDS011;10548;47.504;8.248;2023-04-24T03:19:05;3.17;;;0.70;;
20776;SDS011;10548;47.504;8.248;2023-04-24T03:21:39;0.90;;;0.60;;
20776;SDS011;10548;47.504;8.248;2023-04-24T03:24:07;0.40;;;0.40;;
20776;SDS011;10548;47.504;8.248;2023-04-24T03:26:36;0.50;;;0.50;;
20776;SDS011;10548;47.504;8.248;2023-04-24T03:29:16;1.50;;;0.53;;
20776;SDS011;10548;47.504;8.248;2023-04-24T03:31:44;0.87;;;0.60;;
20776;SDS011;10548;47.504;8.248;2023-04-24T03:34:11;3.67;;;1.10;;
20776;SDS011;10548;47.504;8.248;2023-04-24T03:36:38;0.50;;;0.50;;
20776;SDS011;10548;47.504;8.248;2023-04-24T03:39:07;0.70;;;0.50;;
20776;SDS011;10548;47.504;8.248;2023-04-24T03:41:36;0.90;;;0.40;;
20776;SDS011;10548;47.504;8.248;2023-04-24T03:44:10;1.03;;;0.80;;
20776;SDS011;10548;47.504;8.248;2023-04-24T03:46:37;0.70;;;0.57;;
20776;SDS011;10548;47.504;8.248;2023-04-24T03:49:05;0.77;;;0.50;;
20776;SDS011;10548;47.504;8.248;2023-04-24T03:51:36;4.50;;;0.80;;
20776;SDS011;10548;47.504;8.248;2023-04-24T03:54:15;5.30;;;0.70;;
20776;SDS011;10548;47.504;8.248;2023-04-24T03:56:43;0.80;;;0.70;;
20776;SDS011;10548;47.504;8.248;2023-04-24T03:59:11;1.13;;;0.60;;
20776;SDS011;10548;47.504;8.248;2023-04-24T04:01:42;0.50;;;0.50;;
20776;SDS011;10548;47.504;8.248;2023-04-24T04:04:13;1.67;;;0.60;;
20776;SDS011;10548;47.504;8.248;2023-04-24T04:06:43;1.07;;;0.70;;
20776;SDS011;10548;47.504;8.248;2023-04-24T04:09:11;0.50;;;0.50;;
20776;SDS011;10548;47.504;8.248;2023-04-24T04:11:39;1.00;;;0.70;;
20776;SDS011;10548;47.504;8.248;2023-04-24T04:14:06;1.67;;;0.70;;
20776;SDS011;10548;47.504;8.248;2023-04-24T04:16:35;1.63;;;0.63;;
20776;SDS011;10548;47.504;8.248;2023-04-24T04:19:04;1.07;;;0.80;;
20776;SDS011;10548;47.504;8.248;2023-04-24T04:21:32;2.33;;;0.97;;
20776;SDS011;10548;47.504;8.248;2023-04-24T04:24:13;0.60;;;0.60;;
20776;SDS011;10548;47.504;8.248;2023-04-24T04:26:43;2.00;;;0.83;;
20776;SDS011;10548;47.504;8.248;2023-04-24T04:29:22;0.97;;;0.53;;
20776;SDS011;10548;47.504;8.248;2023-04-24T04:31:50;0.73;;;0.60;;
20776;SDS011;10548;47.504;8.248;2023-04-24T04:34:17;1.20;;;0.53;;
20776;SDS011;10548;47.504;8.248;2023-04-24T04:36:46;5.27;;;0.80;;
20776;SDS011;10548;47.504;8.248;2023-04-24T04:39:34;1.70;;;0.67;;
20776;SDS011;10548;47.504;8.248;2023-04-24T04:42:05;0.87;;;0.70;;
20776;SDS011;10548;47.504;8.248;2023-04-24T04:44:38;2.60;;;0.67;;
20776;SDS011;10548;47.504;8.248;2023-04-24T04:47:09;1.47;;;0.80;;
20776;SDS011;10548;47.504;8.248;2023-04-24T04:49:37;1.70;;;0.83;;
20776;SDS011;10548;47.504;8.248;2023-04-24T04:52:11;1.93;;;0.70;;
20776;SDS011;10548;47.504;8.248;2023-04-24T04:54:38;1.00;;;0.90;;
20776;SDS011;10548;47.504;8.248;2023-04-24T04:57:05;2.60;;;0.93;;
20776;SDS011;10548;47.504;8.248;2023-04-24T04:59:34;1.80;;;1.00;;
20776;SDS011;10548;47.504;8.248;2023-04-24T05:02:05;3.23;;;0.83;;
20776;SDS011;10548;47.504;8.248;2023-04-24T05:04:33;1.40;;;0.80;;
20776;SDS011;10548;47.504;8.248;2023-04-24T05:07:00;3.73;;;1.00;;
20776;SDS011;10548;47.504;8.248;2023-04-24T05:09:31;1.87;;;1.23;;
20776;SDS011;10548;47.504;8.248;2023-04-24T05:12:04;1.67;;;1.00;;
20776;SDS011;10548;47.504;8.248;2023-04-24T05:14:37;2.60;;;1.10;;
20776;SDS011;10548;47.504;8.248;2023-04-24T05:17:04;1.80;;;1.13;;
20776;SDS011;10548;47.504;8.248;2023-04-24T05:19:32;4.90;;;1.33;;
20776;SDS011;10548;47.504;8.248;2023-04-24T05:22:02;5.50;;;1.70;;
20776;SDS011;10548;47.504;8.248;2023-04-24T05:24:33;3.07;;;1.53;;
20776;SDS011;10548;47.504;8.248;2023-04-24T05:27:17;3.17;;;1.63;;
20776;SDS011;10548;47.504;8.248;2023-04-24T05:29:44;3.60;;;1.50;;
20776;SDS011;10548;47.504;8.248;2023-04-24T05:32:12;3.63;;;1.63;;
20776;SDS011;10548;47.504;8.248;2023-04-24T05:34:39;3.17;;;1.70;;
20776;SDS011;10548;47.504;8.248;2023-04-24T05:37:08;5.67;;;2.10;;
20776;SDS011;10548;47.504;8.248;2023-04-24T05:39:36;6.87;;;2.13;;
20776;SDS011;10548;47.504;8.248;2023-04-24T05:42:04;3.10;;;2.00;;
20776;SDS011;10548;47.504;8.248;2023-04-24T05:44:32;7.13;;;2.10;;
20776;SDS011;10548;47.504;8.248;2023-04-24T05:46:59;5.17;;;2.40;;
20776;SDS011;10548;47.504;8.248;2023-04-24T05:49:27;2.67;;;2.00;;
20776;SDS011;10548;47.504;8.248;2023-04-24T05:51:55;3.63;;;2.10;;
20776;SDS011;10548;47.504;8.248;2023-04-24T05:54:23;3.67;;;2.30;;
20776;SDS011;10548;47.504;8.248;2023-04-24T05:56:51;3.63;;;2.10;;
20776;SDS011;10548;47.504;8.248;2023-04-24T05:59:29;3.67;;;2.17;;
20776;SDS011;10548;47.504;8.248;2023-04-24T06:01:56;6.33;;;2.10;;
20776;SDS011;10548;47.504;8.248;2023-04-24T06:04:24;5.47;;;2.37;;
20776;SDS011;10548;47.504;8.248;2023-04-24T06:06:51;6.80;;;2.77;;
20776;SDS011;10548;47.504;8.248;2023-04-24T06:09:23;4.73;;;2.90;;
20776;SDS011;10548;47.504;8.248;2023-04-24T06:11:50;4.73;;;2.37;;
20776;SDS011;10548;47.504;8.248;2023-04-24T06:14:25;3.00;;;1.93;;
20776;SDS011;10548;47.504;8.248;2023-04-24T06:17:22;4.67;;;2.70;;
20776;SDS011;10548;47.504;8.248;2023-04-24T06:19:50;4.87;;;2.63;;
20776;SDS011;10548;47.504;8.248;2023-04-24T06:22:18;4.53;;;2.30;;
20776;SDS011;10548;47.504;8.248;2023-04-24T06:24:45;3.43;;;2.40;;
20776;SDS011;10548;47.504;8.248;2023-04-24T06:27:14;3.50;;;2.17;;
20776;SDS011;10548;47.504;8.248;2023-04-24T06:29:41;5.00;;;2.27;;
20776;SDS011;10548;47.504;8.248;2023-04-24T06:32:09;2.80;;;2.33;;
20776;SDS011;10548;47.504;8.248;2023-04-24T06:34:36;3.20;;;2.23;;
20776;SDS011;10548;47.504;8.248;2023-04-24T06:37:03;2.33;;;2.00;;
20776;SDS011;10548;47.504;8.248;2023-04-24T06:39:31;1.37;;;1.27;;
20776;SDS011;10548;47.504;8.248;2023-04-24T06:41:58;1.60;;;1.30;;
20776;SDS011;10548;47.504;8.248;2023-04-24T06:44:25;5.10;;;1.50;;
20776;SDS011;10548;47.504;8.248;2023-04-24T06:46:52;3.03;;;1.30;;
20776;SDS011;10548;47.504;8.248;2023-04-24T06:49:19;4.07;;;1.40;;
20776;SDS011;10548;47.504;8.248;2023-04-24T06:51:47;1.33;;;1.20;;
20776;SDS011;10548;47.504;8.248;2023-04-24T06:54:14;1.73;;;1.20;;
20776;SDS011;10548;47.504;8.248;2023-04-24T06:56:41;2.10;;;1.60;;
20776;SDS011;10548;47.504;8.248;2023-04-24T06:59:08;3.33;;;1.67;;
20776;SDS011;10548;47.504;8.248;2023-04-24T07:01:35;1.70;;;1.47;;
20776;SDS011;10548;47.504;8.248;2023-04-24T07:04:02;1.70;;;1.33;;
20776;SDS011;10548;47.504;8.248;2023-04-24T07:06:30;1.80;;;1.47;;
20776;SDS011;10548;47.504;8.248;2023-04-24T07:08:58;2.83;;;1.60;;
20776;SDS011;10548;47.504;8.248;2023-04-24T07:11:26;3.30;;;1.50;;
20776;SDS011;10548;47.504;8.248;2023-04-24T07:13:55;4.07;;;1.77;;
20776;SDS011;10548;47.504;8.248;2023-04-24T07:16:22;4.33;;;2.60;;
20776;SDS011;10548;47.504;8.248;2023-04-24T07:18:49;3.27;;;1.60;;
20776;SDS011;10548;47.504;8.248;2023-04-24T07:21:17;6.33;;;2.00;;
20776;SDS011;10548;47.504;8.248;2023-04-24T07:23:44;5.30;;;1.87;;
20776;SDS011;10548;47.504;8.248;2023-04-24T07:26:12;3.83;;;1.43;;
20776;SDS011;10548;47.504;8.248;2023-04-24T07:28:41;3.20;;;1.50;;
20776;SDS011;10548;47.504;8.248;2023-04-24T07:31:08;5.13;;;2.17;;
20776;SDS011;10548;47.504;8.248;2023-04-24T07:33:35;6.17;;;2.00;;
20776;SDS011;10548;47.504;8.248;2023-04-24T07:36:03;5.07;;;2.17;;
20776;SDS011;10548;47.504;8.248;2023-04-24T07:38:31;3.63;;;1.90;;
20776;SDS011;10548;47.504;8.248;2023-04-24T07:40:58;5.00;;;2.43;;
20776;SDS011;10548;47.504;8.248;2023-04-24T07:43:26;7.83;;;2.30;;
20776;SDS011;10548;47.504;8.248;2023-04-24T07:45:53;3.43;;;1.90;;
20776;SDS011;10548;47.504;8.248;2023-04-24T07:48:21;10.87;;;2.27;;
20776;SDS011;10548;47.504;8.248;2023-04-24T07:50:48;4.13;;;2.27;;
20776;SDS011;10548;47.504;8.248;2023-04-24T07:53:15;5.13;;;2.00;;
20776;SDS011;10548;47.504;8.248;2023-04-24T07:55:43;4.37;;;2.20;;
20776;SDS011;10548;47.504;8.248;2023-04-24T07:58:10;4.37;;;2.30;;
20776;SDS011;10548;47.504;8.248;2023-04-24T08:00:37;4.10;;;2.40;;
20776;SDS011;10548;47.504;8.248;2023-04-24T08:03:04;6.27;;;2.70;;
20776;SDS011;10548;47.504;8.248;2023-04-24T08:05:32;7.03;;;2.50;;
20776;SDS011;10548;47.504;8.248;2023-04-24T08:07:59;4.73;;;2.43;;
20776;SDS011;10548;47.504;8.248;2023-04-24T08:10:26;4.53;;;2.07;;
20776;SDS011;10548;47.504;8.248;2023-04-24T08:12:54;3.60;;;2.07;;
20776;SDS011;10548;47.504;8.248;2023-04-24T08:15:21;4.70;;;2.70;;
20776;SDS011;10548;47.504;8.248;2023-04-24T08:17:48;4.83;;;2.53;;
20776;SDS011;10548;47.504;8.248;2023-04-24T08:20:16;7.13;;;2.40;;
20776;SDS011;10548;47.504;8.248;2023-04-24T08:22:44;13.57;;;3.37;;
20776;SDS011;10548;47.504;8.248;2023-04-24T08:25:13;4.17;;;2.23;;
20776;SDS011;10548;47.504;8.248;2023-04-24T08:27:41;7.17;;;2.50;;
20776;SDS011;10548;47.504;8.248;2023-04-24T08:30:09;6.80;;;2.50;;
20776;SDS011;10548;47.504;8.248;2023-04-24T08:32:37;4.87;;;2.40;;
20776;SDS011;10548;47.504;8.248;2023-04-24T08:35:04;11.27;;;2.87;;
20776;SDS011;10548;47.504;8.248;2023-04-24T08:37:32;6.57;;;2.33;;
20776;SDS011;10548;47.504;8.248;2023-04-24T08:39:59;3.50;;;2.30;;
20776;SDS011;10548;47.504;8.248;2023-04-24T08:42:27;5.97;;;2.70;;
20776;SDS011;10548;47.504;8.248;2023-04-24T08:44:59;5.67;;;2.23;;
20776;SDS011;10548;47.504;8.248;2023-04-24T08:47:26;6.13;;;2.43;;
20776;SDS011;10548;47.504;8.248;2023-04-24T08:49:55;6.33;;;2.37;;
20776;SDS011;10548;47.504;8.248;2023-04-24T08:52:23;6.67;;;2.47;;
20776;SDS011;10548;47.504;8.248;2023-04-24T08:54:52;5.37;;;2.30;;
20776;SDS011;10548;47.504;8.248;2023-04-24T08:57:21;3.67;;;1.93;;
20776;SDS011;10548;47.504;8.248;2023-04-24T08:59:48;6.33;;;2.17;;
20776;SDS011;10548;47.504;8.248;2023-04-24T09:02:16;4.40;;;2.50;;
20776;SDS011;10548;47.504;8.248;2023-04-24T09:04:44;7.73;;;2.30;;
20776;SDS011;10548;47.504;8.248;2023-04-24T09:07:14;5.70;;;2.60;;
20776;SDS011;10548;47.504;8.248;2023-04-24T09:09:43;8.00;;;2.37;;
20776;SDS011;10548;47.504;8.248;2023-04-24T09:12:11;3.30;;;2.10;;
20776;SDS011;10548;47.504;8.248;2023-04-24T09:14:39;7.97;;;2.37;;
20776;SDS011;10548;47.504;8.248;2023-04-24T09:17:09;5.83;;;2.13;;
20776;SDS011;10548;47.504;8.248;2023-04-24T09:19:36;7.13;;;2.47;;
20776;SDS011;10548;47.504;8.248;2023-04-24T09:22:07;8.33;;;2.80;;
20776;SDS011;10548;47.504;8.248;2023-04-24T09:24:35;6.33;;;2.70;;
20776;SDS011;10548;47.504;8.248;2023-04-24T09:27:02;5.00;;;2.20;;
20776;SDS011;10548;47.504;8.248;2023-04-24T09:29:30;8.77;;;2.57;;
20776;SDS011;10548;47.504;8.248;2023-04-24T09:31:59;5.23;;;2.30;;
20776;SDS011;10548;47.504;8.248;2023-04-24T09:34:44;5.63;;;1.90;;
20776;SDS011;10548;47.504;8.248;2023-04-24T09:37:29;5.53;;;2.10;;
20776;SDS011;10548;47.504;8.248;2023-04-24T09:40:13;7.07;;;2.10;;
20776;SDS011;10548;47.504;8.248;2023-04-24T09:42:55;8.23;;;2.37;;
20776;SDS011;10548;47.504;8.248;2023-04-24T09:45:38;6.07;;;2.60;;
20776;SDS011;10548;47.504;8.248;2023-04-24T09:48:09;9.53;;;2.53;;
20776;SDS011;10548;47.504;8.248;2023-04-24T09:50:37;7.37;;;2.00;;
20776;SDS011;10548;47.504;8.248;2023-04-24T09:53:05;8.67;;;2.20;;
20776;SDS011;10548;47.504;8.248;2023-04-24T09:55:42;10.03;;;2.27;;
20776;SDS011;10548;47.504;8.248;2023-04-24T09:58:12;7.13;;;2.67;;
20776;SDS011;10548;47.504;8.248;2023-04-24T10:00:40;6.67;;;1.97;;
20776;SDS011;10548;47.504;8.248;2023-04-24T10:03:07;4.40;;;2.23;;
20776;SDS011;10548;47.504;8.248;2023-04-24T10:05:36;7.23;;;2.40;;
20776;SDS011;10548;47.504;8.248;2023-04-24T10:08:07;4.80;;;2.07;;
20776;SDS011;10548;47.504;8.248;2023-04-24T10:10:38;4.20;;;2.30;;
20776;SDS011;10548;47.504;8.248;2023-04-24T10:13:08;5.07;;;2.20;;
20776;SDS011;10548;47.504;8.248;2023-04-24T10:15:37;4.27;;;2.13;;
20776;SDS011;10548;47.504;8.248;2023-04-24T10:18:05;4.50;;;2.03;;
20776;SDS011;10548;47.504;8.248;2023-04-24T10:20:36;7.20;;;2.73;;
20776;SDS011;10548;47.504;8.248;2023-04-24T10:23:04;5.00;;;1.83;;
20776;SDS011;10548;47.504;8.248;2023-04-24T10:25:33;4.73;;;1.87;;
20776;SDS011;10548;47.504;8.248;2023-04-24T10:28:02;7.30;;;2.30;;
20776;SDS011;10548;47.504;8.248;2023-04-24T10:30:31;3.83;;;1.93;;
20776;SDS011;10548;47.504;8.248;2023-04-24T10:33:04;7.50;;;2.40;;
20776;SDS011;10548;47.504;8.248;2023-04-24T10:35:41;4.17;;;2.30;;
20776;SDS011;10548;47.504;8.248;2023-04-24T10:38:14;8.70;;;2.33;;
20776;SDS011;10548;47.504;8.248;2023-04-24T10:40:45;6.60;;;2.33;;
20776;SDS011;10548;47.504;8.248;2023-04-24T10:43:13;7.10;;;2.33;;
20776;SDS011;10548;47.504;8.248;2023-04-24T10:45:59;5.50;;;2.20;;
20776;SDS011;10548;47.504;8.248;2023-04-24T10:48:31;4.97;;;1.90;;
20776;SDS011;10548;47.504;8.248;2023-04-24T10:50:58;4.97;;;1.83;;
20776;SDS011;10548;47.504;8.248;2023-04-24T10:53:29;5.80;;;1.60;;
20776;SDS011;10548;47.504;8.248;2023-04-24T10:56:07;6.57;;;2.00;;
20776;SDS011;10548;47.504;8.248;2023-04-24T10:58:37;6.07;;;2.20;;
20776;SDS011;10548;47.504;8.248;2023-04-24T11:01:32;4.07;;;2.20;;
20776;SDS011;10548;47.504;8.248;2023-04-24T11:04:00;5.90;;;2.23;;
20776;SDS011;10548;47.504;8.248;2023-04-24T11:06:34;2.77;;;1.83;;
20776;SDS011;10548;47.504;8.248;2023-04-24T11:09:06;9.17;;;2.03;;
20776;SDS011;10548;47.504;8.248;2023-04-24T11:11:36;5.13;;;2.30;;
20776;SDS011;10548;47.504;8.248;2023-04-24T11:14:04;4.10;;;1.93;;
20776;SDS011;10548;47.504;8.248;2023-04-24T11:16:43;7.20;;;2.20;;
20776;SDS011;10548;47.504;8.248;2023-04-24T11:22:01;4.33;;;2.00;;
20776;SDS011;10548;47.504;8.248;2023-04-24T11:24:48;6.17;;;2.20;;
20776;SDS011;10548;47.504;8.248;2023-04-24T11:27:22;5.20;;;2.27;;
20776;SDS011;10548;47.504;8.248;2023-04-24T11:30:00;7.17;;;2.40;;
20776;SDS011;10548;47.504;8.248;2023-04-24T11:32:33;6.17;;;2.20;;
20776;SDS011;10548;47.504;8.248;2023-04-24T11:35:14;9.33;;;2.63;;
20776;SDS011;10548;47.504;8.248;2023-04-24T11:37:49;5.77;;;2.43;;
20776;SDS011;10548;47.504;8.248;2023-04-24T11:40:23;3.77;;;2.07;;
20776;SDS011;10548;47.504;8.248;2023-04-24T11:42:52;6.57;;;2.10;;
20776;SDS011;10548;47.504;8.248;2023-04-24T11:45:23;4.27;;;2.50;;
20776;SDS011;10548;47.504;8.248;2023-04-24T11:47:52;5.20;;;2.00;;
20776;SDS011;10548;47.504;8.248;2023-04-24T11:50:21;3.37;;;1.80;;
20776;SDS011;10548;47.504;8.248;2023-04-24T11:52:49;3.77;;;1.93;;
20776;SDS011;10548;47.504;8.248;2023-04-24T11:55:26;3.20;;;1.80;;
20776;SDS011;10548;47.504;8.248;2023-04-24T11:57:55;3.83;;;1.83;;
20776;SDS011;10548;47.504;8.248;2023-04-24T12:00:25;3.70;;;1.67;;
20776;SDS011;10548;47.504;8.248;2023-04-24T12:03:07;3.03;;;1.60;;
20776;SDS011;10548;47.504;8.248;2023-04-24T12:05:36;3.70;;;1.80;;
20776;SDS011;10548;47.504;8.248;2023-04-24T12:08:03;3.10;;;1.50;;
20776;SDS011;10548;47.504;8.248;2023-04-24T12:10:32;4.37;;;1.87;;
20776;SDS011;10548;47.504;8.248;2023-04-24T12:12:59;5.13;;;1.60;;
20776;SDS011;10548;47.504;8.248;2023-04-24T12:15:27;6.47;;;1.87;;
20776;SDS011;10548;47.504;8.248;2023-04-24T12:17:55;3.30;;;1.70;;
20776;SDS011;10548;47.504;8.248;2023-04-24T12:20:29;4.00;;;1.70;;
20776;SDS011;10548;47.504;8.248;2023-04-24T12:22:59;3.80;;;1.90;;
20776;SDS011;10548;47.504;8.248;2023-04-24T12:25:31;5.17;;;1.97;;
20776;SDS011;10548;47.504;8.248;2023-04-24T12:30:46;6.80;;;2.20;;
20776;SDS011;10548;47.504;8.248;2023-04-24T12:33:19;3.47;;;1.83;;
20776;SDS011;10548;47.504;8.248;2023-04-24T12:35:47;5.80;;;2.17;;
20776;SDS011;10548;47.504;8.248;2023-04-24T12:38:21;4.07;;;2.00;;
20776;SDS011;10548;47.504;8.248;2023-04-24T12:41:03;3.27;;;1.73;;
20776;SDS011;10548;47.504;8.248;2023-04-24T12:43:31;4.73;;;2.03;;
20776;SDS011;10548;47.504;8.248;2023-04-24T12:45:59;7.77;;;2.23;;
20776;SDS011;10548;47.504;8.248;2023-04-24T12:48:26;5.83;;;2.70;;
20776;SDS011;10548;47.504;8.248;2023-04-24T12:50:54;6.63;;;2.40;;
20776;SDS011;10548;47.504;8.248;2023-04-24T12:53:23;6.50;;;2.40;;
20776;SDS011;10548;47.504;8.248;2023-04-24T12:55:53;5.80;;;2.20;;
20776;SDS011;10548;47.504;8.248;2023-04-24T12:58:20;8.03;;;2.00;;
20776;SDS011;10548;47.504;8.248;2023-04-24T13:00:47;6.00;;;2.23;;
20776;SDS011;10548;47.504;8.248;2023-04-24T13:03:14;4.60;;;2.23;;
20776;SDS011;10548;47.504;8.248;2023-04-24T13:05:42;4.00;;;2.20;;
20776;SDS011;10548;47.504;8.248;2023-04-24T13:08:10;5.17;;;2.40;;
20776;SDS011;10548;47.504;8.248;2023-04-24T13:10:39;3.63;;;2.10;;
20776;SDS011;10548;47.504;8.248;2023-04-24T13:13:07;7.07;;;2.50;;
20776;SDS011;10548;47.504;8.248;2023-04-24T13:15:35;6.23;;;2.17;;
20776;SDS011;10548;47.504;8.248;2023-04-24T13:18:02;4.03;;;2.17;;
20776;SDS011;10548;47.504;8.248;2023-04-24T13:20:29;3.73;;;2.27;;
20776;SDS011;10548;47.504;8.248;2023-04-24T13:22:57;3.43;;;2.10;;
20776;SDS011;10548;47.504;8.248;2023-04-24T13:25:24;5.13;;;2.30;;
20776;SDS011;10548;47.504;8.248;2023-04-24T13:27:51;5.30;;;2.07;;
20776;SDS011;10548;47.504;8.248;2023-04-24T13:30:19;5.87;;;2.37;;
20776;SDS011;10548;47.504;8.248;2023-04-24T13:32:46;7.30;;;2.37;;
20776;SDS011;10548;47.504;8.248;2023-04-24T13:35:13;2.93;;;1.90;;
20776;SDS011;10548;47.504;8.248;2023-04-24T13:37:41;5.70;;;2.57;;
20776;SDS011;10548;47.504;8.248;2023-04-24T13:40:08;3.17;;;2.27;;
20776;SDS011;10548;47.504;8.248;2023-04-24T13:42:36;5.43;;;1.97;;
20776;SDS011;10548;47.504;8.248;2023-04-24T13:45:04;4.67;;;2.60;;
20776;SDS011;10548;47.504;8.248;2023-04-24T13:47:50;3.73;;;1.87;;
20776;SDS011;10548;47.504;8.248;2023-04-24T13:50:18;3.17;;;1.93;;
20776;SDS011;10548;47.504;8.248;2023-04-24T13:52:46;4.93;;;1.53;;
20776;SDS011;10548;47.504;8.248;2023-04-24T13:55:13;3.20;;;1.43;;
20776;SDS011;10548;47.504;8.248;2023-04-24T13:57:40;5.33;;;2.43;;
20776;SDS011;10548;47.504;8.248;2023-04-24T14:00:07;4.93;;;1.80;;
20776;SDS011;10548;47.504;8.248;2023-04-24T14:02:37;5.87;;;1.93;;
20776;SDS011;10548;47.504;8.248;2023-04-24T14:05:04;6.80;;;1.77;;
20776;SDS011;10548;47.504;8.248;2023-04-24T14:07:33;5.40;;;1.90;;
20776;SDS011;10548;47.504;8.248;2023-04-24T14:10:00;2.30;;;1.70;;
20776;SDS011;10548;47.504;8.248;2023-04-24T14:12:27;4.83;;;1.70;;
20776;SDS011;10548;47.504;8.248;2023-04-24T14:14:54;9.77;;;1.87;;
20776;SDS011;10548;47.504;8.248;2023-04-24T14:17:22;3.37;;;1.70;;
20776;SDS011;10548;47.504;8.248;2023-04-24T14:19:49;3.50;;;1.50;;
20776;SDS011;10548;47.504;8.248;2023-04-24T14:22:18;2.77;;;1.67;;
20776;SDS011;10548;47.504;8.248;2023-04-24T14:24:46;2.40;;;1.70;;
20776;SDS011;10548;47.504;8.248;2023-04-24T14:27:13;3.07;;;1.70;;
20776;SDS011;10548;47.504;8.248;2023-04-24T14:29:40;5.23;;;1.60;;
20776;SDS011;10548;47.504;8.248;2023-04-24T14:32:08;3.40;;;1.50;;
20776;SDS011;10548;47.504;8.248;2023-04-24T14:34:35;3.83;;;1.70;;
20776;SDS011;10548;47.504;8.248;2023-04-24T14:37:02;4.50;;;1.87;;
20776;SDS011;10548;47.504;8.248;2023-04-24T14:39:30;3.10;;;1.60;;
20776;SDS011;10548;47.504;8.248;2023-04-24T14:41:57;4.53;;;1.90;;
20776;SDS011;10548;47.504;8.248;2023-04-24T14:44:24;2.53;;;1.63;;
20776;SDS011;10548;47.504;8.248;2023-04-24T14:46:51;3.43;;;1.77;;
20776;SDS011;10548;47.504;8.248;2023-04-24T14:49:19;2.00;;;1.43;;
20776;SDS011;10548;47.504;8.248;2023-04-24T14:51:47;3.93;;;1.77;;
20776;SDS011;10548;47.504;8.248;2023-04-24T14:54:14;6.23;;;2.20;;
20776;SDS011;10548;47.504;8.248;2023-04-24T14:56:41;4.50;;;1.90;;
20776;SDS011;10548;47.504;8.248;2023-04-24T14:59:10;7.63;;;1.83;;
20776;SDS011;10548;47.504;8.248;2023-04-24T15:01:37;3.30;;;1.70;;
20776;SDS011;10548;47.504;8.248;2023-04-24T15:04:04;4.47;;;1.73;;
20776;SDS011;10548;47.504;8.248;2023-04-24T15:06:31;3.67;;;1.87;;